createdAt,value
2019-05-01T00:00:39.498Z,4.86
2019-05-01T00:01:40.529Z,4.77
2019-05-01T00:02:39.470Z,4.75
2019-05-01T00:03:40.509Z,4.83
2019-05-01T00:04:39.490Z,4.83
2019-05-01T00:05:39.530Z,4.71
2019-05-01T00:06:39.541Z,4.86
2019-05-01T00:07:39.411Z,4.84
2019-05-01T00:08:39.453Z,4.68
2019-05-01T00:09:39.403Z,4.72
2019-05-01T00:10:39.455Z,4.65
2019-05-01T00:11:40.393Z,4.62
2019-05-01T00:12:39.389Z,4.64
2019-05-01T00:13:39.464Z,4.62
2019-05-01T00:14:39.334Z,4.64
2019-05-01T00:15:39.405Z,4.65
2019-05-01T00:16:39.346Z,4.57
2019-05-01T00:17:39.312Z,4.61
2019-05-01T00:18:40.326Z,4.50
2019-05-01T00:19:39.297Z,4.49
2019-05-01T00:20:39.350Z,4.44
2019-05-01T00:21:39.289Z,4.46
2019-05-01T00:22:39.249Z,4.43
2019-05-01T00:23:39.249Z,4.44
2019-05-01T00:24:39.331Z,4.43
2019-05-01T00:25:39.221Z,4.44
2019-05-01T00:26:39.260Z,4.44
2019-05-01T00:27:39.220Z,4.36
2019-05-01T00:28:39.181Z,4.36
2019-05-01T00:29:39.273Z,4.39
2019-05-01T00:30:39.175Z,4.34
2019-05-01T00:31:40.226Z,4.31
2019-05-01T00:32:39.154Z,4.34
2019-05-01T00:33:39.133Z,4.28
2019-05-01T00:34:39.125Z,4.21
2019-05-01T00:35:39.175Z,4.28
2019-05-01T00:36:39.097Z,4.17
2019-05-01T00:37:39.146Z,4.18
2019-05-01T00:38:39.085Z,4.16
2019-05-01T00:39:39.067Z,4.16
2019-05-01T00:40:39.119Z,4.06
2019-05-01T00:41:39.038Z,4.10
2019-05-01T00:42:39.098Z,4.11
2019-05-01T00:43:39.019Z,4.04
2019-05-01T00:44:39.009Z,4.06
2019-05-01T00:45:39.012Z,4.06
2019-05-01T00:46:39.020Z,4.13
2019-05-01T00:47:38.996Z,3.99
2019-05-01T00:48:39.051Z,4.08
2019-05-01T00:49:38.963Z,4.06
2019-05-01T00:50:39.003Z,4.04
2019-05-01T00:51:38.948Z,3.95
2019-05-01T00:52:38.973Z,3.95
2019-05-01T00:53:38.914Z,3.93
2019-05-01T00:54:38.954Z,4.04
2019-05-01T00:55:38.926Z,3.93
2019-05-01T00:56:38.886Z,3.93
2019-05-01T00:57:38.915Z,3.98
2019-05-01T00:58:38.850Z,4.06
2019-05-01T00:59:38.898Z,3.99
2019-05-01T01:00:43.152Z,3.93
2019-05-01T01:01:38.943Z,3.88
2019-05-01T01:02:38.822Z,3.92
2019-05-01T01:03:38.885Z,3.82
2019-05-01T01:04:38.790Z,3.78
2019-05-01T01:05:38.802Z,3.80
2019-05-01T01:06:38.760Z,3.72
2019-05-01T01:07:38.792Z,3.84
2019-05-01T01:08:38.751Z,3.78
2019-05-01T01:09:38.774Z,3.80
2019-05-01T01:10:38.712Z,3.82
2019-05-01T01:11:38.720Z,3.72
2019-05-01T01:12:38.717Z,3.63
2019-05-01T01:13:38.773Z,3.54
2019-05-01T01:14:38.674Z,3.59
2019-05-01T01:15:38.694Z,3.60
2019-05-01T01:16:38.656Z,3.64
2019-05-01T01:17:38.675Z,3.67
2019-05-01T01:18:38.697Z,3.54
2019-05-01T01:19:38.627Z,3.60
2019-05-01T01:20:38.633Z,3.67
2019-05-01T01:21:38.589Z,3.59
2019-05-01T01:22:38.589Z,3.59
2019-05-01T01:23:38.590Z,3.60
2019-05-01T01:24:38.599Z,3.56
2019-05-01T01:25:38.554Z,3.56
2019-05-01T01:26:39.562Z,3.59
2019-05-01T01:27:38.531Z,3.63
2019-05-01T01:28:38.533Z,3.59
2019-05-01T01:29:38.541Z,3.75
2019-05-01T01:30:38.508Z,3.78
2019-05-01T01:31:38.584Z,3.81
2019-05-01T01:32:38.463Z,3.74
2019-05-01T01:33:38.479Z,3.71
2019-05-01T01:34:38.456Z,3.71
2019-05-01T01:35:38.545Z,3.67
2019-05-01T01:36:38.416Z,3.60
2019-05-01T01:37:38.486Z,3.63
2019-05-01T01:38:38.426Z,3.59
2019-05-01T01:39:38.416Z,3.62
2019-05-01T01:40:38.377Z,3.62
2019-05-01T01:41:38.464Z,3.54
2019-05-01T01:42:38.359Z,3.56
2019-05-01T01:43:38.440Z,3.56
2019-05-01T01:44:38.329Z,3.64
2019-05-01T01:45:38.431Z,3.60
2019-05-01T01:46:38.321Z,3.45
2019-05-01T01:47:38.361Z,3.56
2019-05-01T01:48:38.301Z,3.62
2019-05-01T01:49:38.281Z,3.60
2019-05-01T01:50:38.252Z,3.56
2019-05-01T01:51:38.333Z,3.56
2019-05-01T01:52:38.243Z,3.52
2019-05-01T01:53:38.324Z,3.42
2019-05-01T01:54:38.224Z,3.44
2019-05-01T01:55:38.213Z,3.45
2019-05-01T01:56:38.276Z,3.31
2019-05-01T01:57:38.197Z,3.28
2019-05-01T01:58:38.218Z,3.26
2019-05-01T01:59:38.175Z,3.37
2019-05-01T02:00:38.156Z,3.41
2019-05-01T02:01:39.247Z,3.31
2019-05-01T02:02:38.131Z,3.25
2019-05-01T02:03:39.179Z,3.20
2019-05-01T02:04:38.129Z,3.22
2019-05-01T02:05:38.198Z,3.23
2019-05-01T02:06:38.079Z,3.16
2019-05-01T02:07:38.130Z,3.20
2019-05-01T02:08:38.070Z,3.13
2019-05-01T02:09:38.100Z,3.17
2019-05-01T02:10:43.083Z,3.13
2019-05-01T02:11:39.032Z,3.16
2019-05-01T02:12:38.074Z,3.17
2019-05-01T02:13:38.003Z,3.16
2019-05-01T02:14:38.046Z,3.28
2019-05-01T02:15:37.987Z,3.22
2019-05-01T02:16:38.046Z,3.23
2019-05-01T02:17:37.955Z,3.22
2019-05-01T02:18:37.974Z,3.13
2019-05-01T02:19:37.958Z,3.22
2019-05-01T02:20:38.006Z,3.28
2019-05-01T02:21:37.907Z,3.35
2019-05-01T02:22:37.898Z,3.25
2019-05-01T02:23:37.897Z,3.25
2019-05-01T02:24:37.929Z,3.19
2019-05-01T02:25:37.859Z,3.16
2019-05-01T02:26:37.920Z,3.22
2019-05-01T02:27:37.850Z,3.16
2019-05-01T02:28:39.900Z,3.20
2019-05-01T02:29:37.830Z,3.15
2019-05-01T02:30:37.892Z,3.16
2019-05-01T02:31:37.804Z,3.12
2019-05-01T02:32:37.823Z,3.13
2019-05-01T02:33:37.795Z,3.10
2019-05-01T02:34:37.783Z,3.13
2019-05-01T02:35:37.834Z,3.12
2019-05-01T02:36:37.735Z,3.08
2019-05-01T02:37:37.764Z,2.95
2019-05-01T02:38:38.754Z,3.02
2019-05-01T02:39:37.716Z,2.98
2019-05-01T02:40:37.766Z,2.95
2019-05-01T02:41:41.326Z,2.90
2019-05-01T02:42:37.706Z,3.04
2019-05-01T02:43:37.659Z,2.99
2019-05-01T02:44:38.714Z,2.99
2019-05-01T02:45:37.647Z,3.07
2019-05-01T02:46:38.709Z,2.97
2019-05-01T02:47:37.611Z,2.94
2019-05-01T02:48:37.714Z,2.92
2019-05-01T02:49:37.632Z,2.90
2019-05-01T02:50:37.580Z,2.95
2019-05-01T02:51:37.610Z,2.87
2019-05-01T02:52:37.551Z,2.87
2019-05-01T02:53:37.661Z,2.90
2019-05-01T02:54:37.552Z,2.79
2019-05-01T02:55:37.594Z,2.90
2019-05-01T02:56:37.513Z,2.83
2019-05-01T02:57:37.524Z,2.81
2019-05-01T02:58:37.485Z,2.90
2019-05-01T02:59:37.610Z,2.92
2019-05-01T03:00:37.534Z,2.84
2019-05-01T03:01:47.061Z,2.86
2019-05-01T03:02:38.442Z,2.84
2019-05-01T03:03:37.537Z,2.97
2019-05-01T03:04:37.447Z,2.95
2019-05-01T03:05:37.417Z,3.02
2019-05-01T03:06:37.398Z,3.01
2019-05-01T03:07:37.511Z,3.05
2019-05-01T03:08:37.379Z,2.98
2019-05-01T03:09:37.479Z,2.99
2019-05-01T03:10:37.350Z,3.10
2019-05-01T03:11:37.349Z,3.12
2019-05-01T03:12:37.452Z,3.12
2019-05-01T03:13:37.313Z,3.07
2019-05-01T03:14:39.371Z,3.12
2019-05-01T03:15:37.303Z,3.19
2019-05-01T03:16:37.292Z,3.20
2019-05-01T03:17:37.374Z,3.26
2019-05-01T03:18:37.268Z,3.37
2019-05-01T03:19:37.324Z,3.33
2019-05-01T03:20:37.254Z,3.34
2019-05-01T03:21:37.255Z,3.35
2019-05-01T03:22:37.215Z,3.31
2019-05-01T03:23:38.319Z,3.45
2019-05-01T03:24:37.198Z,3.45
2019-05-01T03:25:37.268Z,3.41
2019-05-01T03:26:37.168Z,3.56
2019-05-01T03:27:37.174Z,3.64
2019-05-01T03:28:37.150Z,3.64
2019-05-01T03:29:37.199Z,3.63
2019-05-01T03:30:37.139Z,3.60
2019-05-01T03:31:38.164Z,3.74
2019-05-01T03:32:37.103Z,3.74
2019-05-01T03:33:37.177Z,3.70
2019-05-01T03:34:37.092Z,3.67
2019-05-01T03:35:37.163Z,3.68
2019-05-01T03:36:37.064Z,3.64
2019-05-01T03:37:39.092Z,3.67
2019-05-01T03:38:37.112Z,3.60
2019-05-01T03:39:37.023Z,3.63
2019-05-01T03:40:37.095Z,3.63
2019-05-01T03:41:37.022Z,3.62
2019-05-01T03:42:37.084Z,3.64
2019-05-01T03:43:36.995Z,3.67
2019-05-01T03:44:37.027Z,3.70
2019-05-01T03:45:36.976Z,3.71
2019-05-01T03:46:37.067Z,3.70
2019-05-01T03:47:36.927Z,3.72
2019-05-01T03:48:36.998Z,3.84
2019-05-01T03:49:36.918Z,3.82
2019-05-01T03:50:39.031Z,3.82
2019-05-01T03:51:36.881Z,3.67
2019-05-01T03:52:36.970Z,3.72
2019-05-01T03:53:36.871Z,3.68
2019-05-01T03:54:36.850Z,3.81
2019-05-01T03:55:36.851Z,3.71
2019-05-01T03:56:36.944Z,3.72
2019-05-01T03:57:36.823Z,3.63
2019-05-01T03:58:37.893Z,3.67
2019-05-01T03:59:36.794Z,3.64
2019-05-01T04:00:36.804Z,3.64
2019-05-01T04:01:36.784Z,3.68
2019-05-01T04:02:36.844Z,3.63
2019-05-01T04:03:36.752Z,3.68
2019-05-01T04:04:36.786Z,3.59
2019-05-01T04:05:37.884Z,3.70
2019-05-01T04:06:36.715Z,3.63
2019-05-01T04:07:36.791Z,3.68
2019-05-01T04:08:36.702Z,3.60
2019-05-01T04:09:36.719Z,3.67
2019-05-01T04:10:36.678Z,3.67
2019-05-01T04:11:36.760Z,3.70
2019-05-01T04:12:36.660Z,3.75
2019-05-01T04:13:36.688Z,3.81
2019-05-01T04:14:39.202Z,3.88
2019-05-01T04:15:36.681Z,3.86
2019-05-01T04:16:36.701Z,3.89
2019-05-01T04:17:36.592Z,3.80
2019-05-01T04:18:36.631Z,3.96
2019-05-01T04:19:36.573Z,3.99
2019-05-01T04:20:36.623Z,4.00
2019-05-01T04:21:36.638Z,4.02
2019-05-01T04:22:36.534Z,3.92
2019-05-01T04:23:36.574Z,4.02
2019-05-01T04:24:36.525Z,3.98
2019-05-01T04:25:36.554Z,3.93
2019-05-01T04:26:36.495Z,4.02
2019-05-01T04:27:36.486Z,4.04
2019-05-01T04:28:37.539Z,4.08
2019-05-01T04:29:36.463Z,4.06
2019-05-01T04:30:36.499Z,3.98
2019-05-01T04:31:36.446Z,4.10
2019-05-01T04:32:50.886Z,4.07
2019-05-01T04:33:37.480Z,4.07
2019-05-01T04:34:36.409Z,4.08
2019-05-01T04:35:37.420Z,4.13
2019-05-01T04:36:36.393Z,4.18
2019-05-01T04:37:36.420Z,4.25
2019-05-01T04:38:36.365Z,4.26
2019-05-01T04:39:36.365Z,4.34
2019-05-01T04:40:36.334Z,4.25
2019-05-01T04:41:36.444Z,4.25
2019-05-01T04:42:36.312Z,4.36
2019-05-01T04:43:36.342Z,4.38
2019-05-01T04:44:36.283Z,4.50
2019-05-01T04:45:36.375Z,4.39
2019-05-01T04:46:36.284Z,4.53
2019-05-01T04:47:36.322Z,4.47
2019-05-01T04:48:36.237Z,4.56
2019-05-01T04:49:36.242Z,4.65
2019-05-01T04:50:36.318Z,4.71
2019-05-01T04:51:36.217Z,4.65
2019-05-01T04:52:37.278Z,4.65
2019-05-01T04:53:36.187Z,4.69
2019-05-01T04:54:36.179Z,4.77
2019-05-01T04:55:36.168Z,4.79
2019-05-01T04:56:36.268Z,4.75
2019-05-01T04:57:36.141Z,4.83
2019-05-01T04:58:37.191Z,4.83
2019-05-01T04:59:36.111Z,4.88
2019-05-01T05:00:36.112Z,4.93
2019-05-01T05:01:36.212Z,4.94
2019-05-01T05:02:36.082Z,5.06
2019-05-01T05:03:36.092Z,5.01
2019-05-01T05:04:36.062Z,5.04
2019-05-01T05:05:36.054Z,5.12
2019-05-01T05:06:36.054Z,5.15
2019-05-01T05:07:36.065Z,5.20
2019-05-01T05:08:36.014Z,5.23
2019-05-01T05:09:36.095Z,5.29
2019-05-01T05:10:35.988Z,5.27
2019-05-01T05:11:35.985Z,5.30
2019-05-01T05:12:36.006Z,5.38
2019-05-01T05:13:35.968Z,5.38
2019-05-01T05:14:36.037Z,5.38
2019-05-01T05:15:35.930Z,5.41
2019-05-01T05:16:35.939Z,5.51
2019-05-01T05:17:35.910Z,5.58
2019-05-01T05:18:36.009Z,5.63
2019-05-01T05:19:35.890Z,5.74
2019-05-01T05:20:35.983Z,5.73
2019-05-01T05:21:35.881Z,5.93
2019-05-01T05:22:35.891Z,6.03
2019-05-01T05:23:35.851Z,6.05
2019-05-01T05:24:35.922Z,6.11
2019-05-01T05:25:35.812Z,6.19
2019-05-01T05:26:36.928Z,6.24
2019-05-01T05:27:35.805Z,6.38
2019-05-01T05:28:35.893Z,6.36
2019-05-01T05:29:35.780Z,6.42
2019-05-01T05:30:35.825Z,6.54
2019-05-01T05:31:35.774Z,6.55
2019-05-01T05:32:35.745Z,6.51
2019-05-01T05:33:35.725Z,6.50
2019-05-01T05:34:35.806Z,6.50
2019-05-01T05:35:35.708Z,6.46
2019-05-01T05:36:35.784Z,6.46
2019-05-01T05:37:35.677Z,6.45
2019-05-01T05:38:35.779Z,6.45
2019-05-01T05:39:35.669Z,6.43
2019-05-01T05:40:36.731Z,6.45
2019-05-01T05:41:35.649Z,6.40
2019-05-01T05:42:35.653Z,6.45
2019-05-01T05:43:35.624Z,6.45
2019-05-01T05:44:35.715Z,6.42
2019-05-01T05:45:35.624Z,6.50
2019-05-01T05:46:35.674Z,6.45
2019-05-01T05:47:35.565Z,6.40
2019-05-01T05:48:35.624Z,6.57
2019-05-01T05:49:35.545Z,6.57
2019-05-01T05:50:35.594Z,6.46
2019-05-01T05:51:35.525Z,6.51
2019-05-01T05:52:35.565Z,6.54
2019-05-01T05:53:35.505Z,6.57
2019-05-01T05:54:35.500Z,6.61
2019-05-01T05:55:35.528Z,6.61
2019-05-01T05:56:35.467Z,6.64
2019-05-01T05:57:35.517Z,6.78
2019-05-01T05:58:35.448Z,6.83
2019-05-01T05:59:35.428Z,6.79
2019-05-01T06:00:35.468Z,6.81
2019-05-01T06:01:35.419Z,6.94
2019-05-01T06:02:36.479Z,6.89
2019-05-01T06:03:35.381Z,6.91
2019-05-01T06:04:35.373Z,6.96
2019-05-01T06:05:35.371Z,6.96
2019-05-01T06:06:37.363Z,7.09
2019-05-01T06:07:35.352Z,7.16
2019-05-01T06:08:35.332Z,7.21
2019-05-01T06:09:35.323Z,7.27
2019-05-01T06:10:35.303Z,7.48
2019-05-01T06:11:35.495Z,7.54
2019-05-01T06:12:37.193Z,7.76
2019-05-01T06:13:35.357Z,7.94
2019-05-01T06:14:35.262Z,8.03
2019-05-01T06:15:36.542Z,8.31
2019-05-01T06:16:36.353Z,8.57
2019-05-01T06:17:35.247Z,8.68
2019-05-01T06:18:39.383Z,8.88
2019-05-01T06:19:36.197Z,8.97
2019-05-01T06:20:37.394Z,8.96
2019-05-01T06:21:35.965Z,9.15
2019-05-01T06:22:35.210Z,9.15
2019-05-01T06:23:35.170Z,9.08
2019-05-01T06:24:35.808Z,9.10
2019-05-01T06:25:35.130Z,9.22
2019-05-01T06:26:37.226Z,9.30
2019-05-01T06:27:35.144Z,9.60
2019-05-01T06:28:35.111Z,9.86
2019-05-01T06:29:35.702Z,10.29
2019-05-01T06:30:35.072Z,11.12
2019-05-01T06:31:35.075Z,11.46
2019-05-01T06:32:35.193Z,11.60
2019-05-01T06:33:44.059Z,11.81
2019-05-01T06:34:36.035Z,12.08
2019-05-01T06:35:38.224Z,13.44
2019-05-01T06:36:35.125Z,14.45
2019-05-01T06:37:34.999Z,14.17
2019-05-01T06:38:36.171Z,13.76
2019-05-01T06:39:34.987Z,13.41
2019-05-01T06:40:35.014Z,13.22
2019-05-01T06:41:40.801Z,13.16
2019-05-01T06:42:36.969Z,13.12
2019-05-01T06:43:34.948Z,12.89
2019-05-01T06:44:39.193Z,12.59
2019-05-01T06:45:35.909Z,12.49
2019-05-01T06:46:35.567Z,12.25
2019-05-01T06:47:38.188Z,12.07
2019-05-01T06:48:36.011Z,11.82
2019-05-01T06:49:34.866Z,11.70
2019-05-01T06:50:37.143Z,11.60
2019-05-01T06:51:35.852Z,11.46
2019-05-01T06:52:34.827Z,11.28
2019-05-01T06:53:36.144Z,11.13
2019-05-01T06:54:34.847Z,10.99
2019-05-01T06:55:34.794Z,10.86
2019-05-01T06:56:34.875Z,10.70
2019-05-01T06:57:38.312Z,10.72
2019-05-01T06:58:35.787Z,10.62
2019-05-01T06:59:34.777Z,10.57
2019-05-01T07:00:39.249Z,10.63
2019-05-01T07:01:35.718Z,10.69
2019-05-01T07:02:36.980Z,10.65
2019-05-01T07:03:34.799Z,10.72
2019-05-01T07:04:38.078Z,10.86
2019-05-01T07:05:34.679Z,10.94
2019-05-01T07:06:34.661Z,11.03
2019-05-01T07:07:34.659Z,11.12
2019-05-01T07:08:37.969Z,11.30
2019-05-01T07:09:34.642Z,11.44
2019-05-01T07:10:43.752Z,11.48
2019-05-01T07:11:35.624Z,11.42
2019-05-01T07:12:34.672Z,11.51
2019-05-01T07:13:35.561Z,11.48
2019-05-01T07:14:35.624Z,11.60
2019-05-01T07:15:34.563Z,11.74
2019-05-01T07:16:38.092Z,11.78
2019-05-01T07:17:34.555Z,11.87
2019-05-01T07:18:34.615Z,12.13
2019-05-01T07:19:35.571Z,12.33
2019-05-01T07:20:34.616Z,12.43
2019-05-01T07:21:34.507Z,12.59
2019-05-01T07:22:37.057Z,12.73
2019-05-01T07:23:35.488Z,12.85
2019-05-01T07:24:34.479Z,12.99
2019-05-01T07:25:34.818Z,13.28
2019-05-01T07:26:34.521Z,13.55
2019-05-01T07:27:34.440Z,13.90
2019-05-01T07:28:36.161Z,14.12
2019-05-01T07:29:34.411Z,14.29
2019-05-01T07:30:34.491Z,14.46
2019-05-01T07:31:34.393Z,14.53
2019-05-01T07:32:36.513Z,14.79
2019-05-01T07:33:35.373Z,15.05
2019-05-01T07:34:34.464Z,15.46
2019-05-01T07:35:36.831Z,15.44
2019-05-01T07:36:34.395Z,15.40
2019-05-01T07:37:34.316Z,15.31
2019-05-01T07:38:38.131Z,15.35
2019-05-01T07:39:34.307Z,15.44
2019-05-01T07:40:34.287Z,15.38
2019-05-01T07:41:37.726Z,15.81
2019-05-01T07:42:34.307Z,15.96
2019-05-01T07:43:34.257Z,16.13
2019-05-01T07:44:35.049Z,15.88
2019-05-01T07:45:34.228Z,15.95
2019-05-01T07:46:35.309Z,15.88
2019-05-01T07:47:34.209Z,15.64
2019-05-01T07:48:36.262Z,15.46
2019-05-01T07:49:35.190Z,15.59
2019-05-01T07:50:34.262Z,15.53
2019-05-01T07:51:37.832Z,15.53
2019-05-01T07:52:35.142Z,15.44
2019-05-01T07:53:34.174Z,15.40
2019-05-01T07:54:37.841Z,15.66
2019-05-01T07:55:35.114Z,15.91
2019-05-01T07:56:34.107Z,16.17
2019-05-01T07:57:38.811Z,16.40
2019-05-01T07:58:35.086Z,16.78
2019-05-01T07:59:34.107Z,16.92
2019-05-01T08:00:36.960Z,17.25
2019-05-01T08:01:35.047Z,18.83
2019-05-01T08:02:34.047Z,19.27
2019-05-01T08:03:38.017Z,19.31
2019-05-01T08:04:36.207Z,19.34
2019-05-01T08:05:34.080Z,19.72
2019-05-01T08:06:34.002Z,19.55
2019-05-01T08:07:33.971Z,19.38
2019-05-01T08:08:34.081Z,19.20
2019-05-01T08:09:33.950Z,19.05
2019-05-01T08:10:34.041Z,18.83
2019-05-01T08:11:33.932Z,18.72
2019-05-01T08:12:33.912Z,18.74
2019-05-01T08:13:35.045Z,18.76
2019-05-01T08:14:33.923Z,18.78
2019-05-01T08:15:33.883Z,18.74
2019-05-01T08:16:37.902Z,18.62
2019-05-01T08:17:34.854Z,18.28
2019-05-01T08:18:36.153Z,17.81
2019-05-01T08:19:34.887Z,17.43
2019-05-01T08:20:34.916Z,17.15
2019-05-01T08:21:33.817Z,17.10
2019-05-01T08:22:40.678Z,16.98
2019-05-01T08:23:33.797Z,17.05
2019-05-01T08:24:33.922Z,17.32
2019-05-01T08:25:34.452Z,17.53
2019-05-01T08:26:33.770Z,17.81
2019-05-01T08:27:33.760Z,17.89
2019-05-01T08:28:33.739Z,17.87
2019-05-01T08:29:36.958Z,17.87
2019-05-01T08:30:34.841Z,18.02
2019-05-01T08:31:33.714Z,17.96
2019-05-01T08:32:38.797Z,17.84
2019-05-01T08:33:34.691Z,17.96
2019-05-01T08:34:33.664Z,17.86
2019-05-01T08:35:36.512Z,17.80
2019-05-01T08:36:33.645Z,18.01
2019-05-01T08:37:33.635Z,18.14
2019-05-01T08:38:34.219Z,17.98
2019-05-01T08:39:33.615Z,17.68
2019-05-01T08:40:33.616Z,17.65
2019-05-01T08:41:33.617Z,17.57
2019-05-01T08:42:33.587Z,17.49
2019-05-01T08:43:33.659Z,17.55
2019-05-01T08:44:33.549Z,17.58
2019-05-01T08:45:35.826Z,17.49
2019-05-01T08:46:35.611Z,17.42
2019-05-01T08:47:33.520Z,17.12
2019-05-01T08:48:35.748Z,17.14
2019-05-01T08:49:33.500Z,17.24
2019-05-01T08:50:33.512Z,17.36
2019-05-01T08:51:34.846Z,17.15
2019-05-01T08:52:33.573Z,17.30
2019-05-01T08:53:33.465Z,17.43
2019-05-01T08:54:34.742Z,17.65
2019-05-01T08:55:33.515Z,17.80
2019-05-01T08:56:33.416Z,18.01
2019-05-01T08:57:38.993Z,17.99
2019-05-01T08:58:34.395Z,18.74
2019-05-01T08:59:33.446Z,18.78
2019-05-01T09:00:36.391Z,20.00
2019-05-01T09:01:34.410Z,19.90
2019-05-01T09:02:36.821Z,21.13
2019-05-01T09:03:34.348Z,20.87
2019-05-01T09:04:33.340Z,20.53
2019-05-01T09:05:34.071Z,20.10
2019-05-01T09:06:34.944Z,20.00
2019-05-01T09:07:33.353Z,19.98
2019-05-01T09:08:33.385Z,19.76
2019-05-01T09:09:33.619Z,19.43
2019-05-01T09:10:33.255Z,19.32
2019-05-01T09:11:36.301Z,19.16
2019-05-01T09:12:33.242Z,19.09
2019-05-01T09:13:34.225Z,19.23
2019-05-01T09:14:35.074Z,19.06
2019-05-01T09:15:33.335Z,19.06
2019-05-01T09:16:33.215Z,19.05
2019-05-01T09:17:33.175Z,19.05
2019-05-01T09:18:34.365Z,19.02
2019-05-01T09:19:33.172Z,19.24
2019-05-01T09:20:33.185Z,19.45
2019-05-01T09:21:37.186Z,19.52
2019-05-01T09:22:33.129Z,19.32
2019-05-01T09:23:34.682Z,19.16
2019-05-01T09:24:33.150Z,18.99
2019-05-01T09:25:35.300Z,19.05
2019-05-01T09:26:34.150Z,18.91
2019-05-01T09:27:33.072Z,18.75
2019-05-01T09:28:35.978Z,18.84
2019-05-01T09:29:34.042Z,19.06
2019-05-01T09:30:33.053Z,19.17
2019-05-01T09:31:35.404Z,19.35
2019-05-01T09:32:33.096Z,19.46
2019-05-01T09:33:32.993Z,19.53
2019-05-01T09:34:33.024Z,19.42
2019-05-01T09:35:32.984Z,19.39
2019-05-01T09:36:33.005Z,19.42
2019-05-01T09:37:32.965Z,19.42
2019-05-01T09:38:32.957Z,19.67
2019-05-01T09:39:32.928Z,20.05
2019-05-01T09:40:33.042Z,20.48
2019-05-01T09:41:38.308Z,20.61
2019-05-01T09:42:33.999Z,20.51
2019-05-01T09:43:35.749Z,20.26
2019-05-01T09:44:32.880Z,20.04
2019-05-01T09:45:32.979Z,20.01
2019-05-01T09:46:32.873Z,20.04
2019-05-01T09:47:32.913Z,19.94
2019-05-01T09:48:32.832Z,19.85
2019-05-01T09:49:32.833Z,20.33
2019-05-01T09:50:32.922Z,21.19
2019-05-01T09:51:32.814Z,21.38
2019-05-01T09:52:32.855Z,21.09
2019-05-01T09:53:34.181Z,20.75
2019-05-01T09:54:32.766Z,21.01
2019-05-01T09:55:32.756Z,21.16
2019-05-01T09:56:32.877Z,21.15
2019-05-01T09:57:36.551Z,21.45
2019-05-01T09:58:33.717Z,21.45
2019-05-01T09:59:32.707Z,21.38
2019-05-01T10:00:32.711Z,21.55
2019-05-01T10:01:33.075Z,21.45
2019-05-01T10:02:32.680Z,21.05
2019-05-01T10:03:33.730Z,21.22
2019-05-01T10:04:32.661Z,21.51
2019-05-01T10:05:32.986Z,21.42
2019-05-01T10:06:32.704Z,21.68
2019-05-01T10:07:32.652Z,21.38
2019-05-01T10:08:40.016Z,20.97
2019-05-01T10:09:32.623Z,20.78
2019-05-01T10:10:32.583Z,20.50
2019-05-01T10:11:35.913Z,20.19
2019-05-01T10:12:33.675Z,20.20
2019-05-01T10:13:32.555Z,20.53
2019-05-01T10:14:36.304Z,20.87
2019-05-01T10:15:32.547Z,21.03
2019-05-01T10:16:32.606Z,20.87
2019-05-01T10:17:32.528Z,20.71
2019-05-01T10:18:32.518Z,20.54
2019-05-01T10:19:32.499Z,20.37
2019-05-01T10:20:32.559Z,20.27
2019-05-01T10:21:32.528Z,20.22
2019-05-01T10:22:32.884Z,20.30
2019-05-01T10:23:32.480Z,20.51
2019-05-01T10:24:37.761Z,20.56
2019-05-01T10:25:33.522Z,20.46
2019-05-01T10:26:32.423Z,20.41
2019-05-01T10:27:35.746Z,20.20
2019-05-01T10:28:32.384Z,20.17
2019-05-01T10:29:33.394Z,19.92
2019-05-01T10:30:36.363Z,19.78
2019-05-01T10:31:33.355Z,19.78
2019-05-01T10:32:32.366Z,19.68
2019-05-01T10:33:33.863Z,19.65
2019-05-01T10:34:32.327Z,19.62
2019-05-01T10:35:42.654Z,19.78
2019-05-01T10:36:33.308Z,19.76
2019-05-01T10:37:33.772Z,19.87
2019-05-01T10:38:32.381Z,20.05
2019-05-01T10:39:32.269Z,20.04
2019-05-01T10:40:34.252Z,20.13
2019-05-01T10:41:32.271Z,19.97
2019-05-01T10:42:32.234Z,19.70
2019-05-01T10:43:32.213Z,19.75
2019-05-01T10:44:32.292Z,19.80
2019-05-01T10:45:32.193Z,19.85
2019-05-01T10:46:32.224Z,19.92
2019-05-01T10:47:32.225Z,20.07
2019-05-01T10:48:32.275Z,20.22
2019-05-01T10:49:32.129Z,20.01
2019-05-01T10:50:32.206Z,19.92
2019-05-01T10:51:32.137Z,19.80
2019-05-01T10:52:34.179Z,19.72
2019-05-01T10:53:32.118Z,19.53
2019-05-01T10:54:32.179Z,19.67
2019-05-01T10:55:32.090Z,19.79
2019-05-01T10:56:32.109Z,20.01
2019-05-01T10:57:35.177Z,20.33
2019-05-01T10:58:33.121Z,20.48
2019-05-01T10:59:32.030Z,20.79
2019-05-01T11:00:32.084Z,20.75
2019-05-01T11:01:32.023Z,20.75
2019-05-01T11:02:32.124Z,20.66
2019-05-01T11:03:32.003Z,20.71
2019-05-01T11:04:32.054Z,20.75
2019-05-01T11:05:31.974Z,20.56
2019-05-01T11:06:31.995Z,20.73
2019-05-01T11:07:31.945Z,20.72
2019-05-01T11:08:31.966Z,20.69
2019-05-01T11:09:31.927Z,20.68
2019-05-01T11:10:32.988Z,20.48
2019-05-01T11:11:31.899Z,20.23
2019-05-01T11:12:32.008Z,20.04
2019-05-01T11:13:31.901Z,19.83
2019-05-01T11:14:31.859Z,19.80
2019-05-01T11:15:31.900Z,19.87
2019-05-01T11:16:31.853Z,19.79
2019-05-01T11:17:38.701Z,19.90
2019-05-01T11:18:31.832Z,20.04
2019-05-01T11:19:31.802Z,19.87
2019-05-01T11:20:31.815Z,19.53
2019-05-01T11:21:33.866Z,19.35
2019-05-01T11:22:31.796Z,19.35
2019-05-01T11:23:31.794Z,19.39
2019-05-01T11:24:31.761Z,19.32
2019-05-01T11:25:31.736Z,19.49
2019-05-01T11:26:31.747Z,19.46
2019-05-01T11:27:31.728Z,19.55
2019-05-01T11:28:32.768Z,19.83
2019-05-01T11:29:31.690Z,19.53
2019-05-01T11:30:31.679Z,19.47
2019-05-01T11:31:31.699Z,19.47
2019-05-01T11:32:31.871Z,19.32
2019-05-01T11:33:32.694Z,19.16
2019-05-01T11:34:31.631Z,19.15
2019-05-01T11:35:32.692Z,19.23
2019-05-01T11:36:31.602Z,19.06
2019-05-01T11:37:31.706Z,19.07
2019-05-01T11:38:31.602Z,19.06
2019-05-01T11:39:35.999Z,18.96
2019-05-01T11:40:32.553Z,18.86
2019-05-01T11:41:31.545Z,18.83
2019-05-01T11:42:31.647Z,18.89
2019-05-01T11:43:31.547Z,18.96
2019-05-01T11:44:31.582Z,19.06
2019-05-01T11:45:31.563Z,19.17
2019-05-01T11:46:31.497Z,19.39
2019-05-01T11:47:31.479Z,19.49
2019-05-01T11:48:32.520Z,19.38
2019-05-01T11:49:31.470Z,19.39
2019-05-01T11:50:31.490Z,19.32
2019-05-01T11:51:31.431Z,19.38
2019-05-01T11:52:31.521Z,19.57
2019-05-01T11:53:31.442Z,19.49
2019-05-01T11:54:31.505Z,19.40
2019-05-01T11:55:31.394Z,19.39
2019-05-01T11:56:32.424Z,19.40
2019-05-01T11:57:31.375Z,19.31
2019-05-01T11:58:31.474Z,19.23
2019-05-01T11:59:32.872Z,19.25
2019-05-01T12:00:32.396Z,19.20
2019-05-01T12:01:31.316Z,19.35
2019-05-01T12:02:31.296Z,19.39
2019-05-01T12:03:31.347Z,19.35
2019-05-01T12:04:31.348Z,19.38
2019-05-01T12:05:31.279Z,19.42
2019-05-01T12:06:31.285Z,19.31
2019-05-01T12:07:31.261Z,19.34
2019-05-01T12:08:31.253Z,19.32
2019-05-01T12:09:31.320Z,19.35
2019-05-01T12:10:31.210Z,19.38
2019-05-01T12:11:32.232Z,19.20
2019-05-01T12:12:31.192Z,19.34
2019-05-01T12:13:43.228Z,19.24
2019-05-01T12:14:32.293Z,19.13
2019-05-01T12:15:31.164Z,19.05
2019-05-01T12:16:31.254Z,19.12
2019-05-01T12:17:31.640Z,18.91
2019-05-01T12:18:31.136Z,18.86
2019-05-01T12:19:31.126Z,18.96
2019-05-01T12:20:32.147Z,19.07
2019-05-01T12:21:31.087Z,19.07
2019-05-01T12:22:31.168Z,19.10
2019-05-01T12:23:31.069Z,19.17
2019-05-01T12:24:31.126Z,19.17
2019-05-01T12:25:31.070Z,19.32
2019-05-01T12:26:31.042Z,19.30
2019-05-01T12:27:31.032Z,19.17
2019-05-01T12:28:31.012Z,19.13
2019-05-01T12:29:31.021Z,19.01
2019-05-01T12:30:31.014Z,18.89
2019-05-01T12:31:31.372Z,18.75
2019-05-01T12:32:30.965Z,18.71
2019-05-01T12:33:32.045Z,18.79
2019-05-01T12:34:30.966Z,18.83
2019-05-01T12:35:31.056Z,18.87
2019-05-01T12:36:36.359Z,18.84
2019-05-01T12:37:32.019Z,18.94
2019-05-01T12:38:30.898Z,18.89
2019-05-01T12:39:30.967Z,18.91
2019-05-01T12:40:30.889Z,18.93
2019-05-01T12:41:30.960Z,19.05
2019-05-01T12:42:30.861Z,19.12
2019-05-01T12:43:32.940Z,19.27
2019-05-01T12:44:30.862Z,19.34
2019-05-01T12:45:30.821Z,19.40
2019-05-01T12:46:31.059Z,19.39
2019-05-01T12:47:30.875Z,19.25
2019-05-01T12:48:31.642Z,19.34
2019-05-01T12:49:30.853Z,19.38
2019-05-01T12:50:30.777Z,19.34
2019-05-01T12:51:30.765Z,19.43
2019-05-01T12:52:30.745Z,19.28
2019-05-01T12:53:30.790Z,19.30
2019-05-01T12:54:30.786Z,19.28
2019-05-01T12:55:30.818Z,19.24
2019-05-01T12:56:30.697Z,19.28
2019-05-01T12:57:30.698Z,19.39
2019-05-01T12:58:31.600Z,19.39
2019-05-01T12:59:30.729Z,19.42
2019-05-01T13:00:30.649Z,19.50
2019-05-01T13:01:31.600Z,19.47
2019-05-01T13:02:30.641Z,19.55
2019-05-01T13:03:30.661Z,19.67
2019-05-01T13:04:30.622Z,19.86
2019-05-01T13:05:30.694Z,20.00